Time;durP1;ratioP1;P1;durP2;ratioP2;P2;SDS_P1;SDS_P2;PMS_P1;PMS_P2;Temp;Humidity;BMP_temperature;BMP_pressure;BME280_temperature;BME280_humidity;BME280_pressure;Samples;Min_cycle;Max_cycle;Signal;HPM_P1;HPM_P2
2021/01/18 00:00:54;;;;;;;13.68;5.93;;;8.20;76.80;;;;;;5033617;28;20483;-69
2021/01/18 00:03:20;;;;;;;15.77;6.25;;;8.20;76.80;;;;;;5047473;28;20032;-69
2021/01/18 00:05:45;;;;;;;18.00;6.32;;;8.20;76.80;;;;;;5017216;28;20043;-69
2021/01/18 00:08:11;;;;;;;16.15;5.78;;;8.20;76.70;;;;;;5030456;28;20107;-71
2021/01/18 00:10:37;;;;;;;17.13;5.38;;;8.20;76.60;;;;;;5048569;28;20025;-71
2021/01/18 00:13:02;;;;;;;13.40;4.75;;;8.20;76.70;;;;;;5034363;28;20040;-69
2021/01/18 00:15:28;;;;;;;20.85;6.15;;;8.20;76.80;;;;;;5027614;28;20033;-69
2021/01/18 00:17:54;;;;;;;17.20;5.95;;;8.20;76.90;;;;;;5023105;28;20041;-70
2021/01/18 00:20:21;;;;;;;17.92;7.30;;;8.20;76.80;;;;;;5052263;28;20063;-70
2021/01/18 00:22:48;;;;;;;18.30;6.22;;;8.30;76.80;;;;;;5050755;28;20640;-70
2021/01/18 00:25:18;;;;;;;18.50;6.47;;;8.20;76.60;;;;;;5033681;28;20483;-70
2021/01/18 00:27:44;;;;;;;23.45;6.93;;;8.20;76.70;;;;;;5047872;28;20071;-70
2021/01/18 00:30:15;;;;;;;15.43;6.57;;;8.10;76.80;;;;;;5047389;28;20061;-69
2021/01/18 00:32:41;;;;;;;16.85;6.35;;;8.00;77.00;;;;;;5050014;28;20021;-71
2021/01/18 00:35:09;;;;;;;14.70;7.00;;;8.00;77.10;;;;;;5042596;28;20094;-71
2021/01/18 00:37:49;;;;;;;18.55;6.75;;;7.90;77.10;;;;;;5051851;28;20048;-72
2021/01/18 00:40:20;;;;;;;19.88;6.30;;;7.90;77.30;;;;;;5050151;28;20029;-72
2021/01/18 00:42:46;;;;;;;16.95;5.90;;;7.80;77.80;;;;;;5035746;28;20033;-72
2021/01/18 00:45:14;;;;;;;12.23;5.60;;;7.80;77.40;;;;;;5036785;28;20041;-70
2021/01/18 00:47:48;;;;;;;16.13;6.10;;;7.80;78.00;;;;;;5041116;28;20103;-72
2021/01/18 00:50:18;;;;;;;;;;;7.80;78.00;;;;;;5022081;28;20475;-72
2021/01/18 00:52:45;;;;;;;18.42;6.50;;;7.90;78.00;;;;;;5041393;28;19904;-72
2021/01/18 00:55:12;;;;;;;15.00;6.47;;;8.00;77.30;;;;;;5051974;28;20040;-69
2021/01/18 00:57:38;;;;;;;29.40;6.85;;;7.90;77.90;;;;;;5048459;28;20524;-69
2021/01/18 01:00:10;;;;;;;17.70;7.15;;;7.90;77.50;;;;;;5070695;28;20025;-69
2021/01/18 01:02:41;;;;;;;16.25;6.10;;;8.00;77.40;;;;;;5057379;28;20107;-69
2021/01/18 01:05:08;;;;;;;16.25;6.35;;;8.00;78.00;;;;;;5058771;28;20056;-69
2021/01/18 01:07:42;;;;;;;23.38;6.95;;;8.00;77.30;;;;;;5050834;28;20041;-69
2021/01/18 01:10:09;;;;;;;28.35;7.43;;;8.00;77.30;;;;;;5059842;28;20056;-69
2021/01/18 01:12:35;;;;;;;15.07;7.13;;;8.10;77.40;;;;;;5064878;28;20474;-69
2021/01/18 01:15:01;;;;;;;16.73;6.63;;;8.00;77.80;;;;;;5059007;28;20029;-72
2021/01/18 01:17:27;;;;;;;14.50;6.53;;;8.10;77.10;;;;;;5066393;28;20089;-71
2021/01/18 01:19:52;;;;;;;16.23;6.20;;;8.10;77.70;;;;;;5059489;28;20437;-70
2021/01/18 01:22:18;;;;;;;23.52;6.35;;;8.20;76.80;;;;;;5062730;28;20033;-70
2021/01/18 01:24:44;;;;;;;31.67;8.07;;;8.20;76.60;;;;;;5060770;28;20072;-70
2021/01/18 01:27:09;;;;;;;20.30;6.95;;;8.20;76.40;;;;;;5062234;28;20032;-70
2021/01/18 01:29:35;;;;;;;27.33;8.63;;;8.20;76.90;;;;;;5063891;28;20063;-70
2021/01/18 01:32:01;;;;;;;13.07;6.20;;;8.20;76.90;;;;;;5071844;28;20112;-70
2021/01/18 01:34:26;;;;;;;15.88;7.22;;;8.00;76.90;;;;;;5067082;28;20064;-70
2021/01/18 01:36:52;;;;;;;21.08;7.18;;;8.00;76.90;;;;;;5062369;28;20037;-69
2021/01/18 01:39:18;;;;;;;19.25;6.63;;;8.00;77.10;;;;;;5057275;28;20032;-70
2021/01/18 01:41:43;;;;;;;16.40;7.20;;;7.90;76.70;;;;;;5070254;28;20509;-70
2021/01/18 01:44:09;;;;;;;20.92;8.30;;;7.90;76.70;;;;;;5069044;28;20390;-69
2021/01/18 01:46:35;;;;;;;17.80;7.43;;;7.80;77.30;;;;;;5067699;28;20032;-69
2021/01/18 01:49:01;;;;;;;16.02;6.97;;;7.90;76.90;;;;;;5069139;28;20035;-69
2021/01/18 01:51:28;;;;;;;13.48;6.88;;;7.90;76.90;;;;;;5060757;28;20021;-69
2021/01/18 01:53:56;;;;;;;17.63;6.95;;;7.90;77.40;;;;;;5061273;28;20016;-69
2021/01/18 01:56:22;;;;;;;14.43;7.72;;;7.90;76.70;;;;;;5059911;28;20041;-69
2021/01/18 01:58:52;;;;;;;19.15;7.28;;;7.80;77.10;;;;;;5038845;28;20051;-69
2021/01/18 02:01:20;;;;;;;13.38;6.05;;;7.80;77.20;;;;;;5045083;28;20072;-69
2021/01/18 02:03:47;;;;;;;14.82;6.30;;;7.70;76.80;;;;;;5027020;28;20040;-69
2021/01/18 02:06:12;;;;;;;20.45;8.00;;;7.70;76.80;;;;;;5052180;28;20033;-69
2021/01/18 02:08:38;;;;;;;15.35;6.20;;;7.60;76.80;;;;;;5045066;28;20029;-69
2021/01/18 02:11:05;;;;;;;13.82;6.88;;;7.60;77.40;;;;;;5042779;28;20034;-69
2021/01/18 02:14:04;;;;;;;14.38;6.70;;;7.70;76.60;;;;;;5043566;28;20328;-69
2021/01/18 02:16:55;;;;;;;21.52;7.60;;;7.70;76.20;;;;;;5048436;28;20063;-69
2021/01/18 02:19:55;;;;;;;16.50;7.47;;;7.70;76.20;;;;;;5049715;28;20063;-70
2021/01/18 02:22:33;;;;;;;17.02;7.82;;;7.60;76.40;;;;;;5038378;28;20033;-69
2021/01/18 02:25:13;;;;;;;13.63;6.88;;;7.60;76.60;;;;;;5038890;28;20033;-69
2021/01/18 02:27:57;;;;;;;15.75;7.35;;;7.50;77.10;;;;;;5047925;28;20033;-69
2021/01/18 02:30:26;;;;;;;16.38;7.03;;;7.50;76.90;;;;;;5031387;28;20029;-71
2021/01/18 02:33:26;;;;;;;13.10;6.60;;;7.50;77.50;;;;;;5019121;28;20101;-71
2021/01/18 02:36:48;;;;;;;26.77;8.20;;;7.50;76.70;;;;;;5051064;28;20487;-69
2021/01/18 02:39:34;;;;;;;20.08;6.80;;;7.50;76.90;;;;;;4950445;29;20475;-69
2021/01/18 02:42:07;;;;;;;17.60;7.45;;;7.40;77.10;;;;;;4948355;29;20147;-69
2021/01/18 02:44:36;;;;;;;14.93;7.07;;;7.40;77.20;;;;;;5026331;28;20090;-69
2021/01/18 02:47:03;;;;;;;18.08;7.05;;;7.40;77.10;;;;;;5051184;28;20062;-69
2021/01/18 02:49:29;;;;;;;17.98;6.95;;;7.40;76.90;;;;;;5030938;28;20043;-69
2021/01/18 02:52:02;;;;;;;13.43;6.45;;;7.40;77.00;;;;;;5046628;28;20040;-69
2021/01/18 02:54:27;;;;;;;13.00;5.78;;;7.40;77.00;;;;;;5042515;28;20059;-69
2021/01/18 02:56:53;;;;;;;14.38;6.88;;;7.40;76.70;;;;;;5031305;28;20151;-69
2021/01/18 02:59:19;;;;;;;15.80;6.47;;;7.50;76.60;;;;;;5023886;28;20032;-69
2021/01/18 03:02:04;;;;;;;17.73;7.13;;;7.50;76.40;;;;;;5050723;28;20120;-69
2021/01/18 03:04:44;;;;;;;16.08;6.28;;;7.50;76.20;;;;;;5046821;28;20059;-69
2021/01/18 03:07:28;;;;;;;13.90;6.20;;;7.60;76.20;;;;;;5032545;28;20418;-69
2021/01/18 03:10:00;;;;;;;16.38;6.95;;;7.60;75.80;;;;;;5031362;28;20120;-69
2021/01/18 03:12:31;;;;;;;15.25;6.38;;;7.50;75.70;;;;;;5045789;28;20075;-69
2021/01/18 03:14:59;;;;;;;16.70;6.95;;;7.50;75.80;;;;;;5044474;28;20142;-69
2021/01/18 03:17:29;;;;;;;21.80;8.27;;;7.50;75.70;;;;;;5049751;28;20062;-69
2021/01/18 03:19:55;;;;;;;18.55;8.13;;;7.50;75.80;;;;;;5045068;28;20035;-69
2021/01/18 03:22:28;;;;;;;16.77;6.53;;;7.50;76.00;;;;;;5018515;28;20029;-69
2021/01/18 03:24:59;;;;;;;17.90;7.75;;;7.40;76.20;;;;;;5050890;28;20025;-69
2021/01/18 03:27:25;;;;;;;23.00;6.80;;;7.30;76.20;;;;;;5050677;28;20174;-69
2021/01/18 03:29:51;;;;;;;15.10;6.70;;;7.30;76.80;;;;;;5014107;28;20453;-69
2021/01/18 03:32:16;;;;;;;19.20;7.63;;;7.30;76.50;;;;;;5016688;28;20029;-69
2021/01/18 03:34:42;;;;;;;16.92;7.55;;;7.30;76.40;;;;;;5036837;28;20042;-69
2021/01/18 03:37:08;;;;;;;18.80;7.30;;;7.20;76.90;;;;;;5020666;28;20064;-69
2021/01/18 03:39:33;;;;;;;24.73;7.13;;;7.30;76.80;;;;;;5047223;28;20114;-69
2021/01/18 03:41:59;;;;;;;17.58;6.93;;;7.40;75.90;;;;;;5051230;28;20111;-69
2021/01/18 03:44:24;;;;;;;13.82;6.57;;;7.40;75.80;;;;;;5035502;28;20040;-69
2021/01/18 03:46:50;;;;;;;19.73;8.55;;;7.40;76.40;;;;;;5012708;28;20044;-69
2021/01/18 03:49:16;;;;;;;20.80;7.20;;;7.30;76.00;;;;;;5036297;28;20246;-69
2021/01/18 03:51:41;;;;;;;24.73;8.43;;;7.20;76.30;;;;;;5032584;28;20631;-69
2021/01/18 03:54:07;;;;;;;16.23;7.27;;;7.10;76.60;;;;;;5049849;28;20446;-69
2021/01/18 03:56:40;;;;;;;22.70;7.77;;;7.10;76.90;;;;;;5049254;28;20072;-69
2021/01/18 03:59:07;;;;;;;16.92;6.85;;;7.10;76.90;;;;;;5044207;28;20510;-69
2021/01/18 04:01:37;;;;;;;14.77;6.75;;;7.00;77.00;;;;;;5049741;28;20048;-69
2021/01/18 04:04:03;;;;;;;15.77;6.95;;;7.00;77.20;;;;;;5038302;28;20084;-69
2021/01/18 04:06:39;;;;;;;19.83;7.95;;;6.90;77.60;;;;;;5023614;28;20039;-68
2021/01/18 04:09:05;;;;;;;16.63;7.93;;;6.80;77.80;;;;;;5029228;28;20055;-69
2021/01/18 04:11:32;;;;;;;17.77;8.45;;;6.80;78.40;;;;;;5040724;28;20479;-69
2021/01/18 04:13:58;;;;;;;16.17;7.33;;;6.70;78.30;;;;;;5049566;28;20037;-69
2021/01/18 04:16:23;;;;;;;23.42;9.50;;;6.70;78.40;;;;;;5035146;28;20360;-69
2021/01/18 04:18:49;;;;;;;20.20;7.70;;;6.70;78.40;;;;;;5031803;28;20140;-69
2021/01/18 04:21:16;;;;;;;15.93;7.47;;;6.70;78.50;;;;;;5038257;28;20104;-69
2021/01/18 04:23:42;;;;;;;20.60;8.73;;;6.60;78.70;;;;;;5037161;28;20029;-69
2021/01/18 04:26:08;;;;;;;19.30;8.30;;;6.60;79.20;;;;;;5049501;28;20064;-69
2021/01/18 04:28:34;;;;;;;16.48;8.35;;;6.70;78.80;;;;;;5031332;28;20071;-69
2021/01/18 04:30:59;;;;;;;18.27;8.33;;;6.70;78.60;;;;;;5037624;28;20547;-69
2021/01/18 04:33:26;;;;;;;22.75;8.52;;;6.70;78.50;;;;;;5043719;28;20045;-69
2021/01/18 04:35:54;;;;;;;18.98;7.00;;;6.70;78.50;;;;;;5039791;28;20498;-69
2021/01/18 04:38:19;;;;;;;18.73;9.47;;;6.70;79.00;;;;;;5040372;28;20029;-69
2021/01/18 04:40:45;;;;;;;17.50;6.85;;;6.80;78.30;;;;;;5031355;28;20434;-71
2021/01/18 04:43:13;;;;;;;19.53;8.90;;;6.80;78.20;;;;;;5015443;28;20032;-71
2021/01/18 04:45:40;;;;;;;20.23;8.50;;;6.80;78.80;;;;;;5050041;28;20117;-71
2021/01/18 04:48:07;;;;;;;15.77;7.40;;;6.90;78.10;;;;;;5025728;28;20033;-71
2021/01/18 04:50:32;;;;;;;16.60;7.33;;;6.80;78.00;;;;;;5043822;28;20032;-71
2021/01/18 04:53:13;;;;;;;16.47;7.73;;;6.90;78.10;;;;;;5042588;28;20029;-70
2021/01/18 04:55:42;;;;;;;18.33;8.77;;;6.90;78.30;;;;;;5045984;28;20014;-71
2021/01/18 04:58:14;;;;;;;17.57;8.57;;;6.80;78.30;;;;;;5030363;28;20033;-71
2021/01/18 05:00:49;;;;;;;21.33;8.80;;;6.80;78.40;;;;;;5047321;28;20032;-71
2021/01/18 05:03:20;;;;;;;21.05;9.10;;;6.80;79.00;;;;;;5045784;28;20025;-71
2021/01/18 05:05:54;;;;;;;18.02;7.85;;;6.90;78.20;;;;;;5015244;28;20112;-71
2021/01/18 05:08:39;;;;;;;22.75;9.88;;;7.00;78.00;;;;;;5033650;28;20021;-71
2021/01/18 05:11:04;;;;;;;21.15;9.23;;;7.10;77.90;;;;;;5042890;28;20033;-71
2021/01/18 05:13:31;;;;;;;20.42;9.15;;;7.10;77.90;;;;;;5028622;28;20040;-71
2021/01/18 05:15:59;;;;;;;17.27;8.25;;;7.10;78.50;;;;;;5045721;28;20072;-71
2021/01/18 05:18:34;;;;;;;17.17;8.80;;;7.10;78.30;;;;;;5015434;28;20029;-70
2021/01/18 05:21:08;;;;;;;19.60;8.90;;;7.20;78.00;;;;;;5022722;28;20025;-71
2021/01/18 05:23:40;;;;;;;;;;;7.20;77.80;;;;;;5050425;28;20025;-71
2021/01/18 05:26:25;;;;;;;20.85;10.45;;;7.30;77.90;;;;;;5029758;28;20267;-71
2021/01/18 05:28:54;;;;;;;17.63;9.52;;;7.20;77.60;;;;;;5044242;28;20033;-71
2021/01/18 05:31:26;;;;;;;28.92;10.57;;;7.20;77.80;;;;;;4999443;28;20041;-71
2021/01/18 05:33:55;;;;;;;20.40;9.52;;;7.20;77.90;;;;;;5039873;28;20041;-70
2021/01/18 05:36:41;;;;;;;19.80;8.70;;;7.20;78.50;;;;;;5046221;28;20455;-70
2021/01/18 05:39:18;;;;;;;21.42;9.82;;;7.40;77.70;;;;;;5042331;28;20033;-71
2021/01/18 05:41:48;;;;;;;22.50;10.15;;;7.40;78.20;;;;;;5052321;28;20025;-71
2021/01/18 05:44:14;;;;;;;24.75;11.20;;;7.40;78.20;;;;;;5051460;28;20029;-71
2021/01/18 05:46:43;;;;;;;24.73;9.82;;;7.40;78.30;;;;;;5051887;28;20064;-71
2021/01/18 05:49:10;;;;;;;19.65;9.75;;;7.40;78.40;;;;;;5049898;28;20025;-71
2021/01/18 05:51:36;;;;;;;19.67;10.45;;;7.40;78.40;;;;;;5051807;28;20040;-71
2021/01/18 05:54:03;;;;;;;22.23;10.07;;;7.50;77.80;;;;;;5034842;28;20410;-70
2021/01/18 05:56:41;;;;;;;27.83;10.60;;;7.60;77.80;;;;;;5039706;28;20060;-70
2021/01/18 05:59:17;;;;;;;25.85;11.10;;;7.60;77.50;;;;;;5065530;28;20044;-71
2021/01/18 06:01:43;;;;;;;21.85;10.63;;;7.70;77.40;;;;;;5064322;28;20111;-71
2021/01/18 06:04:11;;;;;;;25.92;11.30;;;7.60;77.90;;;;;;5052376;28;20025;-71
2021/01/18 06:06:37;;;;;;;24.42;10.63;;;7.80;77.30;;;;;;5067928;28;20413;-71
2021/01/18 06:09:04;;;;;;;29.92;12.02;;;7.70;77.80;;;;;;5068397;28;20033;-71
2021/01/18 06:11:29;;;;;;;24.55;11.77;;;7.70;77.80;;;;;;5071276;28;20216;-71
2021/01/18 06:14:03;;;;;;;19.83;9.88;;;7.90;77.30;;;;;;5064927;28;20039;-71
2021/01/18 06:16:30;;;;;;;;;;;7.80;77.80;;;;;;5067002;28;20501;-71
2021/01/18 06:19:22;;;;;;;24.45;9.38;;;7.90;77.60;;;;;;5058529;28;19924;-71
2021/01/18 06:21:48;;;;;;;19.83;10.35;;;7.90;76.70;;;;;;5069318;28;20064;-71
2021/01/18 06:24:14;;;;;;;23.17;11.05;;;7.90;76.90;;;;;;5071511;28;20112;-71
2021/01/18 06:26:40;;;;;;;25.73;12.50;;;7.80;77.40;;;;;;5055797;28;20040;-71
2021/01/18 06:29:06;;;;;;;20.30;8.98;;;7.90;77.20;;;;;;5051539;28;20112;-71
2021/01/18 06:31:45;;;;;;;28.15;11.75;;;7.90;77.10;;;;;;5066178;28;20067;-71
2021/01/18 06:34:10;;;;;;;23.15;9.70;;;7.80;77.70;;;;;;5070314;28;20068;-71
2021/01/18 06:36:37;;;;;;;23.02;10.02;;;7.80;77.60;;;;;;5058112;28;20114;-71
2021/01/18 06:39:06;;;;;;;25.95;10.13;;;7.80;77.80;;;;;;5051028;28;20584;-71
2021/01/18 06:41:33;;;;;;;22.73;11.48;;;7.80;77.50;;;;;;5066847;28;20505;-71
2021/01/18 06:44:00;;;;;;;23.73;10.98;;;7.80;78.10;;;;;;5062138;28;20037;-71
2021/01/18 06:46:36;;;;;;;20.20;9.75;;;7.80;77.40;;;;;;5065455;28;20036;-71
2021/01/18 06:49:03;;;;;;;24.98;9.95;;;7.80;77.50;;;;;;5068315;28;20036;-71
2021/01/18 06:51:30;;;;;;;25.75;10.30;;;7.80;78.10;;;;;;5071008;28;20033;-71
2021/01/18 06:53:58;;;;;;;23.73;10.13;;;7.80;78.10;;;;;;5051312;28;20033;-71
2021/01/18 06:56:29;;;;;;;25.30;10.55;;;7.80;78.10;;;;;;5056514;28;20072;-71
2021/01/18 06:59:32;;;;;;;23.48;11.10;;;7.90;77.50;;;;;;5036497;28;20056;-71
2021/01/18 07:02:16;;;;;;;25.17;12.23;;;7.90;77.30;;;;;;5024923;28;20037;-71
2021/01/18 07:04:45;;;;;;;;;;;7.90;77.80;;;;;;5043470;28;20083;-71
2021/01/18 07:07:26;;;;;;;24.42;10.02;;;8.00;76.80;;;;;;5037017;28;20012;-71
2021/01/18 07:09:59;;;;;;;20.55;9.93;;;8.00;77.40;;;;;;5015461;28;20098;-76
2021/01/18 07:12:26;;;;;;;21.70;9.52;;;8.00;77.40;;;;;;5037949;28;20037;-71
2021/01/18 07:14:57;;;;;;;20.48;10.38;;;7.90;77.40;;;;;;5033826;28;20105;-72
2021/01/18 07:17:39;;;;;;;32.42;10.98;;;7.90;77.60;;;;;;5040594;28;20116;-71
2021/01/18 07:20:11;;;;;;;26.42;9.50;;;8.00;77.10;;;;;;5024785;28;20285;-72
2021/01/18 07:23:01;;;;;;;27.48;11.18;;;7.90;77.60;;;;;;5045309;28;20469;-71
2021/01/18 07:25:34;;;;;;;21.85;10.70;;;7.90;77.60;;;;;;5043335;28;20052;-72
2021/01/18 07:28:02;;;;;;;22.58;10.35;;;7.90;77.40;;;;;;5023240;28;20029;-72
2021/01/18 07:30:49;;;;;;;26.50;11.38;;;8.00;76.80;;;;;;5035717;28;20040;-72
2021/01/18 07:33:16;;;;;;;27.80;12.23;;;8.00;76.90;;;;;;5006148;28;20030;-72
2021/01/18 07:35:44;;;;;;;19.48;10.45;;;8.00;77.40;;;;;;5028327;28;20090;-71
2021/01/18 07:38:17;;;;;;;27.83;12.82;;;8.00;77.00;;;;;;5012029;28;20037;-71
2021/01/18 07:41:07;;;;;;;23.85;11.13;;;8.00;77.60;;;;;;5044100;28;20025;-71
2021/01/18 07:43:38;;;;;;;26.38;12.43;;;8.00;77.10;;;;;;5018827;28;20039;-71
2021/01/18 07:46:25;;;;;;;28.75;12.43;;;7.90;77.60;;;;;;5044883;28;20060;-71
2021/01/18 07:49:23;;;;;;;32.33;13.07;;;8.00;77.20;;;;;;5035570;28;20075;-72
2021/01/18 07:51:48;;;;;;;24.52;13.02;;;7.90;77.40;;;;;;5037960;28;20125;-73
2021/01/18 07:54:33;;;;;;;27.45;14.45;;;8.00;77.70;;;;;;5036365;28;20100;-73
2021/01/18 07:57:24;;;;;;;27.45;12.60;;;7.90;77.60;;;;;;5046269;28;20048;-72
2021/01/18 08:00:10;;;;;;;31.42;12.90;;;7.90;78.20;;;;;;5045912;28;20025;-72
2021/01/18 08:02:36;;;;;;;26.60;13.48;;;8.00;77.80;;;;;;5040181;28;20063;-73
2021/01/18 08:05:22;;;;;;;24.52;13.30;;;7.90;78.30;;;;;;5029770;28;20412;-72
2021/01/18 08:08:02;;;;;;;24.73;12.45;;;7.90;78.30;;;;;;5019164;28;20068;-72
2021/01/18 08:10:57;;;;;;;26.13;14.15;;;8.10;77.40;;;;;;5041063;28;20053;-72
2021/01/18 08:13:47;;;;;;;26.80;14.73;;;8.00;77.90;;;;;;5022958;28;20029;-72
2021/01/18 08:16:14;;;;;;;23.63;11.20;;;8.10;77.80;;;;;;5022810;28;20132;-72
2021/01/18 08:18:59;;;;;;;24.60;13.60;;;8.10;77.80;;;;;;5039281;28;20099;-72
2021/01/18 08:21:33;;;;;;;24.10;13.77;;;8.20;77.20;;;;;;5040046;28;20090;-73
2021/01/18 08:23:59;;;;;;;24.92;12.18;;;8.30;77.10;;;;;;5040492;28;20111;-73
2021/01/18 08:26:25;;;;;;;26.00;13.65;;;8.20;77.60;;;;;;5024447;28;20104;-72
2021/01/18 08:28:51;;;;;;;26.75;13.75;;;8.30;76.80;;;;;;5045313;28;20523;-71
2021/01/18 08:31:16;;;;;;;25.38;13.30;;;8.30;76.70;;;;;;5017950;28;20072;-72
2021/01/18 08:33:42;;;;;;;28.63;15.57;;;8.40;76.60;;;;;;5027384;28;20083;-73
2021/01/18 08:36:08;;;;;;;25.13;12.88;;;8.40;77.80;;;;;;5003774;28;20044;-72
2021/01/18 08:38:34;;;;;;;27.33;13.32;;;8.40;77.10;;;;;;5047407;28;20029;-72
2021/01/18 08:41:10;;;;;;;27.92;14.05;;;8.40;77.20;;;;;;5051227;28;20673;-71
2021/01/18 08:43:49;;;;;;;28.67;13.13;;;8.30;77.40;;;;;;5041712;28;20052;-72
2021/01/18 08:46:39;;;;;;;28.55;13.50;;;8.30;77.30;;;;;;5049652;28;20087;-75
2021/01/18 08:49:28;;;;;;;23.52;12.75;;;8.20;77.90;;;;;;5015492;28;20084;-77
2021/01/18 08:51:56;;;;;;;24.20;13.02;;;8.30;77.20;;;;;;5034952;28;20044;-73
2021/01/18 08:54:31;;;;;;;21.58;12.30;;;8.20;77.70;;;;;;5024707;28;20096;-76
2021/01/18 08:57:23;;;;;;;26.35;15.50;;;8.30;77.80;;;;;;5043115;28;20057;-74
2021/01/18 09:00:08;;;;;;;23.23;12.60;;;8.20;77.80;;;;;;5037243;28;20481;-72
2021/01/18 09:02:34;;;;;;;24.67;13.00;;;8.40;77.20;;;;;;5039578;28;20033;-74
2021/01/18 09:05:22;;;;;;;28.10;13.23;;;8.50;77.00;;;;;;5041184;28;20040;-74
2021/01/18 09:07:49;;;;;;;24.83;12.25;;;8.50;76.80;;;;;;5042708;28;20048;-74
2021/01/18 09:10:20;;;;;;;32.25;15.43;;;8.60;76.80;;;;;;5024029;28;20029;-75
2021/01/18 09:12:48;;;;;;;29.17;15.02;;;8.50;77.30;;;;;;5039226;28;20037;-73
2021/01/18 09:15:16;;;;;;;30.80;14.57;;;8.50;77.20;;;;;;5027739;28;20037;-72
2021/01/18 09:17:42;;;;;;;27.60;15.00;;;8.60;77.30;;;;;;5024206;28;20124;-72
2021/01/18 09:20:09;;;;;;;36.33;16.27;;;8.60;76.90;;;;;;5023244;28;20100;-71
2021/01/18 09:22:37;;;;;;;25.67;14.30;;;8.60;76.90;;;;;;5012537;28;20033;-72
2021/01/18 09:25:04;;;;;;;27.67;15.00;;;8.70;77.00;;;;;;5023850;28;20036;-71
2021/01/18 09:27:34;;;;;;;29.40;16.13;;;8.60;77.50;;;;;;5039343;28;20029;-71
2021/01/18 09:30:09;;;;;;;28.08;14.07;;;8.60;77.50;;;;;;5031218;28;20033;-71
2021/01/18 09:32:36;;;;;;;27.42;14.95;;;8.60;77.70;;;;;;5047121;28;20110;-72
2021/01/18 09:35:14;;;;;;;32.22;15.13;;;8.60;77.70;;;;;;5041707;28;20034;-72
2021/01/18 09:37:44;;;;;;;30.08;15.85;;;8.60;77.80;;;;;;5021869;28;20446;-73
2021/01/18 09:40:11;;;;;;;39.03;15.70;;;8.50;78.70;;;;;;5038565;28;20032;-72
2021/01/18 09:42:37;;;;;;;34.08;16.02;;;8.60;77.70;;;;;;5019462;28;20055;-72
2021/01/18 09:45:08;;;;;;;29.67;16.02;;;8.60;77.50;;;;;;5029681;28;20036;-72
2021/01/18 09:47:34;;;;;;;33.17;15.52;;;8.60;78.10;;;;;;5032183;28;20108;-73
2021/01/18 09:50:10;;;;;;;28.77;14.73;;;8.60;77.90;;;;;;5034293;28;20115;-71
2021/01/18 09:52:43;;;;;;;28.30;15.00;;;8.60;77.90;;;;;;5050685;28;20033;-72
2021/01/18 09:55:12;;;;;;;35.08;15.15;;;8.70;77.30;;;;;;5033677;28;20087;-72
2021/01/18 09:57:40;;;;;;;35.20;16.08;;;8.80;77.20;;;;;;5048857;28;20124;-72
2021/01/18 10:00:08;;;;;;;32.70;16.30;;;8.80;77.30;;;;;;5050878;28;20025;-73
2021/01/18 10:02:40;;;;;;;27.67;14.57;;;8.80;77.30;;;;;;5040394;28;20054;-72
2021/01/18 10:05:07;;;;;;;29.52;14.68;;;8.70;77.90;;;;;;5045795;28;20028;-72
2021/01/18 10:07:33;;;;;;;29.70;14.65;;;8.80;77.90;;;;;;5027535;28;20032;-72
2021/01/18 10:10:01;;;;;;;25.77;14.25;;;8.80;77.70;;;;;;5040857;28;20025;-73
2021/01/18 10:12:29;;;;;;;28.70;14.25;;;8.90;77.60;;;;;;5026680;28;20026;-72
2021/01/18 10:14:57;;;;;;;25.27;14.00;;;8.90;77.00;;;;;;5036812;28;20412;-72
2021/01/18 10:17:30;;;;;;;21.70;12.90;;;9.00;76.90;;;;;;5042281;28;20034;-73
2021/01/18 10:20:07;;;;;;;27.25;14.07;;;9.00;76.80;;;;;;5036628;28;20062;-73
2021/01/18 10:22:37;;;;;;;30.65;14.05;;;9.00;76.70;;;;;;5047556;28;20048;-73
2021/01/18 10:25:10;;;;;;;24.73;14.25;;;8.90;77.20;;;;;;5014310;28;20026;-72
2021/01/18 10:27:36;;;;;;;27.55;14.45;;;9.00;77.40;;;;;;5018982;28;20021;-72
2021/01/18 10:30:10;;;;;;;24.58;14.95;;;9.00;77.30;;;;;;5039566;28;20112;-72
2021/01/18 10:32:41;;;;;;;20.52;12.18;;;9.10;76.70;;;;;;5006570;28;20136;-73
2021/01/18 10:35:22;;;;;;;27.13;13.75;;;9.10;76.50;;;;;;5034563;28;20044;-72
2021/01/18 10:37:48;;;;;;;27.58;13.45;;;9.10;76.50;;;;;;5034533;28;20042;-73
2021/01/18 10:40:19;;;;;;;28.13;12.63;;;9.00;77.10;;;;;;5017519;28;20022;-74
2021/01/18 10:42:52;;;;;;;24.05;13.27;;;9.00;77.00;;;;;;5037263;28;20494;-73
2021/01/18 10:45:22;;;;;;;27.63;12.90;;;9.10;77.00;;;;;;5038618;28;20121;-72
2021/01/18 10:47:59;;;;;;;29.58;14.82;;;9.20;76.80;;;;;;5011453;28;21169;-70
2021/01/18 10:50:29;;;;;;;26.77;12.95;;;9.30;75.90;;;;;;5018030;28;20029;-71
2021/01/18 10:53:01;;;;;;;27.45;14.57;;;9.20;76.40;;;;;;5023861;28;20413;-72
2021/01/18 10:55:27;;;;;;;25.08;13.10;;;9.20;75.80;;;;;;5016834;28;20037;-72
2021/01/18 10:57:53;;;;;;;28.85;14.48;;;9.20;75.80;;;;;;5055107;28;20048;-73
2021/01/18 11:00:24;;;;;;;32.38;17.00;;;9.20;76.50;;;;;;5065422;28;20029;-73
2021/01/18 11:03:01;;;;;;;26.25;14.27;;;9.20;76.50;;;;;;5049201;28;20029;-73
2021/01/18 11:05:38;;;;;;;32.53;15.10;;;9.20;75.80;;;;;;5053826;28;20466;-73
2021/01/18 11:08:13;;;;;;;27.55;15.93;;;9.10;76.50;;;;;;5063253;28;20115;-73
2021/01/18 11:10:41;;;;;;;27.27;14.55;;;9.10;76.30;;;;;;5052501;28;20059;-73
2021/01/18 11:13:10;;;;;;;29.75;13.68;;;9.10;75.80;;;;;;5061499;28;20123;-72
2021/01/18 11:15:41;;;;;;;27.27;14.38;;;9.10;76.40;;;;;;5067206;28;20031;-74
2021/01/18 11:18:09;;;;;;;28.83;15.20;;;9.10;76.40;;;;;;5058562;28;20540;-73
2021/01/18 11:20:36;;;;;;;21.10;14.05;;;9.10;76.40;;;;;;5055347;28;20033;-74
2021/01/18 11:23:02;;;;;;;28.95;15.35;;;9.20;76.40;;;;;;5054428;28;21980;-76
2021/01/18 11:25:29;;;;;;;23.27;14.25;;;9.30;76.20;;;;;;5061239;28;20128;-73
2021/01/18 11:28:07;;;;;;;25.25;15.40;;;9.30;75.90;;;;;;5050266;28;20048;-78
2021/01/18 11:30:32;;;;;;;22.88;13.30;;;9.30;75.40;;;;;;5062684;28;20079;-75
2021/01/18 11:32:58;;;;;;;26.58;14.57;;;9.30;75.30;;;;;;5039416;28;20036;-75
2021/01/18 11:35:23;;;;;;;25.33;12.80;;;9.30;75.90;;;;;;5040409;28;20052;-76
2021/01/18 11:37:49;;;;;;;22.33;13.27;;;9.30;75.60;;;;;;5058008;28;20154;-74
2021/01/18 11:40:15;;;;;;;22.17;13.27;;;9.30;75.10;;;;;;5055736;28;20029;-75
2021/01/18 11:42:40;;;;;;;26.73;14.00;;;9.30;75.20;;;;;;5059681;28;20032;-73
2021/01/18 11:45:08;;;;;;;25.92;16.83;;;9.30;75.80;;;;;;5061119;28;20047;-73
2021/01/18 11:47:38;;;;;;;27.25;15.55;;;9.30;75.80;;;;;;5054615;28;20535;-75
2021/01/18 11:50:10;;;;;;;19.58;12.88;;;9.30;75.60;;;;;;5047927;28;20493;-75
2021/01/18 11:52:47;;;;;;;22.27;13.07;;;9.40;74.60;;;;;;5056914;28;20016;-75
2021/01/18 11:55:14;;;;;;;22.65;12.07;;;9.40;74.60;;;;;;5061031;28;20471;-75
2021/01/18 11:57:44;;;;;;;20.38;11.48;;;9.30;75.20;;;;;;5042322;28;20053;-72
2021/01/18 12:00:15;;;;;;;25.63;13.05;;;9.30;75.00;;;;;;5019388;28;20029;-74
2021/01/18 12:02:41;;;;;;;19.90;12.77;;;9.30;74.90;;;;;;5028157;28;20040;-75
2021/01/18 12:05:07;;;;;;;23.88;11.57;;;9.30;75.40;;;;;;5018157;28;20048;-76
2021/01/18 12:07:33;;;;;;;18.65;11.18;;;9.40;74.80;;;;;;5039862;28;20032;-75
2021/01/18 12:09:59;;;;;;;24.58;11.82;;;9.40;74.50;;;;;;5024961;28;20140;-75
2021/01/18 12:12:25;;;;;;;18.52;10.70;;;9.50;74.40;;;;;;5037906;28;20033;-75
2021/01/18 12:14:51;;;;;;;25.45;11.50;;;9.40;74.90;;;;;;5029509;28;20039;-75
2021/01/18 12:17:17;;;;;;;21.05;10.57;;;9.50;74.60;;;;;;5010954;28;20045;-75
2021/01/18 12:19:42;;;;;;;18.83;9.98;;;9.50;75.10;;;;;;5034417;28;20053;-75
2021/01/18 12:22:08;;;;;;;20.23;9.48;;;9.50;74.80;;;;;;5020445;28;20079;-75
2021/01/18 12:24:34;;;;;;;18.50;9.75;;;9.60;74.30;;;;;;5024571;28;20115;-75
2021/01/18 12:26:59;;;;;;;18.38;9.20;;;9.50;74.80;;;;;;5008844;28;20037;-75
2021/01/18 12:29:25;;;;;;;21.65;10.48;;;9.60;74.60;;;;;;5031233;28;20112;-75
2021/01/18 12:31:51;;;;;;;20.48;9.77;;;9.70;74.00;;;;;;5026053;28;20029;-75
2021/01/18 12:34:16;;;;;;;24.17;11.77;;;9.60;73.80;;;;;;5004931;28;20061;-76
2021/01/18 12:36:42;;;;;;;19.40;8.10;;;9.70;74.00;;;;;;5016489;28;20457;-75
2021/01/18 12:39:09;;;;;;;18.85;9.20;;;9.60;74.50;;;;;;5046644;28;20090;-75
2021/01/18 12:41:38;;;;;;;19.25;8.45;;;9.60;74.40;;;;;;5047479;28;20044;-75
2021/01/18 12:44:06;;;;;;;18.00;7.70;;;9.60;74.00;;;;;;5008419;28;20463;-75
2021/01/18 12:46:32;;;;;;;21.95;9.57;;;9.60;74.20;;;;;;5023283;28;20109;-75
2021/01/18 12:48:59;;;;;;;16.77;7.82;;;9.60;74.30;;;;;;5006128;28;20323;-75
2021/01/18 12:51:26;;;;;;;15.98;8.15;;;9.60;74.20;;;;;;5054602;28;20458;-76
2021/01/18 12:53:56;;;;;;;16.02;7.68;;;9.60;74.90;;;;;;5031040;28;20051;-75
2021/01/18 12:56:28;;;;;;;17.73;9.02;;;9.60;74.90;;;;;;5028014;28;20125;-76
2021/01/18 12:58:55;;;;;;;24.38;9.13;;;9.60;74.70;;;;;;5058896;28;20041;-74
2021/01/18 13:01:31;;;;;;;17.55;7.80;;;9.60;74.60;;;;;;5053527;28;20033;-74